Seadream 1 — C6PW8 — position and weather

sailwx.info

Track history (hours):
 
Tides and Currents Weather Stations Pressure Air Temp Water Temp Dewpoint Dewpoint Depression Visibility Wind Speed Wind Dir Waves Ship Positions

Seadream 1

Last reported at 2016-Jul-02 01:33 UTC. Time now 2016-Jul-02 02:12 UTC.
Position N 37°44' E 023°43'.

Length 105 m; draft 4.3 m.

Type: Ship. MMSI: 308908000.

Date/timePositionNaut miles runAvg speedWind from/ knotsBaromVisibWave heightAir tempDewpointWater temp
2016-Jul-02 01:33N 37°44' E 023°43'9 9.0
2016-Jul-02 00:33N 37°37' E 023°50'9 9.0
2016-Jul-01 23:33N 37°33' E 024°00'10 9.3
2016-Jul-01 22:30N 37°31' E 024°12'2210.0
2016-Jul-01 20:17N 37°31' E 024°40'810.5
2016-Jul-01 19:34N 37°32' E 024°50'1111.0
2016-Jul-01 18:33N 37°30' E 025°04'1211.9
2016-Jul-01 17:34N 37°28' E 025°18'1 1.0
2016-Jul-01 16:33N 37°27' E 025°19'0 0.0
2016-Jul-01 15:33N 37°27' E 025°19'0 0.0
2016-Jul-01 14:31N 37°27' E 025°19'0 0.0
2016-Jul-01 13:32N 37°27' E 025°19'0 0.0
2016-Jul-01 12:32N 37°27' E 025°19'0 0.0
2016-Jul-01 11:24N 37°27' E 025°19'0 0.0
2016-Jul-01 10:31N 37°27' E 025°19'0 0.0
2016-Jul-01 09:31N 37°27' E 025°19'0 0.0
2016-Jul-01 08:32N 37°27' E 025°19'0 0.0
2016-Jul-01 07:33N 37°27' E 025°19'0 0.0
2016-Jul-01 06:31N 37°27' E 025°19'0 0.0
2016-Jul-01 05:32N 37°27' E 025°19'0 0.0
2016-Jul-01 04:33N 37°27' E 025°19'7 5.5
2016-Jul-01 03:13N 37°33' E 025°25'5 7.8
2016-Jul-01 02:33N 37°36' E 025°30'  
2016-Jun-28 22:33N 37°13' E 025°47'13 6.1
2016-Jun-28 20:22N 37°14' E 025°30'5 6.0
2016-Jun-28 19:34N 37°13' E 025°24'6 5.6
2016-Jun-28 18:34N 37°12' E 025°17'70 1.6
2016-Jun-26 22:23N 37°16' E 023°49'5 5.8
2016-Jun-26 21:33N 37°19' E 023°45'6 6.1
2016-Jun-26 20:33N 37°22' E 023°38'6 6.0
2016-Jun-26 19:33N 37°23' E 023°31'3 3.2
2016-Jun-26 18:33N 37°21' E 023°28'0 0.0
2016-Jun-26 17:32N 37°21' E 023°28'0 0.0
2016-Jun-26 16:31N 37°21' E 023°27'0 0.0
2016-Jun-26 15:28N 37°21' E 023°27'0 0.0
2016-Jun-26 14:32N 37°21' E 023°28'0 0.0
2016-Jun-26 13:30N 37°21' E 023°27'0 0.0
2016-Jun-26 12:31N 37°21' E 023°28'0 0.0
2016-Jun-26 11:26N 37°21' E 023°28'0 0.1
2016-Jun-26 10:28N 37°21' E 023°27'0 0.0
2016-Jun-26 09:32N 37°21' E 023°27'0 0.0
2016-Jun-26 08:31N 37°21' E 023°27'0 0.0
2016-Jun-26 07:29N 37°21' E 023°27'0 0.0
2016-Jun-26 06:33N 37°21' E 023°27'0 0.0
2016-Jun-26 05:33N 37°21' E 023°27'0 0.0
2016-Jun-26 04:32N 37°21' E 023°27'0 0.0
2016-Jun-26 03:29N 37°21' E 023°27'0 0.0
2016-Jun-26 01:32N 37°21' E 023°28'0 0.0
2016-Jun-26 00:29N 37°21' E 023°28'0 0.0
2016-Jun-25 23:33N 37°21' E 023°28'0 0.0
2016-Jun-25 22:32N 37°21' E 023°28'0 0.0
2016-Jun-25 21:31N 37°21' E 023°28'0 0.0
2016-Jun-25 20:31N 37°21' E 023°28'2 2.2
2016-Jun-25 19:33N 37°23' E 023°29'1212.2
2016-Jun-25 18:33N 37°32' E 023°38'1110.9
2016-Jun-25 17:34N 37°43' E 023°40'1211.7
2016-Jun-25 16:33N 37°55' E 023°37'2 2.0
2016-Jun-25 15:32N 37°56' E 023°38'0 0.0
2016-Jun-25 14:28N 37°56' E 023°38'0 0.0
2016-Jun-25 13:32N 37°56' E 023°38'0 0.0
2016-Jun-25 12:32N 37°56' E 023°38'0 0.0
2016-Jun-25 11:33N 37°56' E 023°38'0 0.0
2016-Jun-25 10:31N 37°56' E 023°38'0 0.0
2016-Jun-25 09:31N 37°56' E 023°38'0 0.0
2016-Jun-25 08:31N 37°56' E 023°38'0 0.0
2016-Jun-25 07:33N 37°56' E 023°38'0 0.0
2016-Jun-25 06:31N 37°56' E 023°38'0 0.0
2016-Jun-25 05:31N 37°56' E 023°38'0 0.0
2016-Jun-25 04:31N 37°56' E 023°38'1 1.5
2016-Jun-25 03:33N 37°56' E 023°37'3 3.2
2016-Jun-25 02:33N 37°52' E 023°38'7 7.5
2016-Jun-25 01:34N 37°46' E 023°42'7 7.4
2016-Jun-25 00:33N 37°40' E 023°47'8 8.1
2016-Jun-24 23:33N 37°35' E 023°55'9 7.6
2016-Jun-24 22:24N 37°29' E 024°04'43 7.2
2016-Jun-24 16:31N 37°10' E 024°52'7 7.4
2016-Jun-24 15:33N 37°08' E 025°00'6 0.5
2016-Jun-24 04:33N 37°05' E 025°06'4 3.8
2016-Jun-24 03:34N 37°06' E 025°02'1 0.8
2016-Jun-24 02:33N 37°06' E 025°02'1 1.2
2016-Jun-24 01:34N 37°05' E 025°02'1 1.0
2016-Jun-24 00:34N 37°06' E 025°02'  
Track history (hours):
 
Tides and Currents Weather Stations Pressure Air Temp Water Temp Dewpoint Dewpoint Depression Visibility Wind Speed Wind Dir Waves Ship Positions

Seadream 1

Last reported at 2016-Jul-02 01:33 UTC. Time now 2016-Jul-02 02:12 UTC.
Position N 37°44' E 023°43'.

Length 105 m; draft 4.3 m.

Type: Ship. MMSI: 308908000.

Date/timePositionNaut miles runAvg speedWind from/ knotsBaromVisibWave heightAir tempDewpointWater temp
2016-Jul-02 01:33N 37°44' E 023°43'9 9.0
2016-Jul-02 00:33N 37°37' E 023°50'9 9.0
2016-Jul-01 23:33N 37°33' E 024°00'10 9.3
2016-Jul-01 22:30N 37°31' E 024°12'2210.0
2016-Jul-01 20:17N 37°31' E 024°40'810.5
2016-Jul-01 19:34N 37°32' E 024°50'1111.0
2016-Jul-01 18:33N 37°30' E 025°04'1211.9
2016-Jul-01 17:34N 37°28' E 025°18'1 1.0
2016-Jul-01 16:33N 37°27' E 025°19'0 0.0
2016-Jul-01 15:33N 37°27' E 025°19'0 0.0
2016-Jul-01 14:31N 37°27' E 025°19'0 0.0
2016-Jul-01 13:32N 37°27' E 025°19'0 0.0
2016-Jul-01 12:32N 37°27' E 025°19'0 0.0
2016-Jul-01 11:24N 37°27' E 025°19'0 0.0
2016-Jul-01 10:31N 37°27' E 025°19'0 0.0
2016-Jul-01 09:31N 37°27' E 025°19'0 0.0
2016-Jul-01 08:32N 37°27' E 025°19'0 0.0
2016-Jul-01 07:33N 37°27' E 025°19'0 0.0
2016-Jul-01 06:31N 37°27' E 025°19'0 0.0
2016-Jul-01 05:32N 37°27' E 025°19'0 0.0
2016-Jul-01 04:33N 37°27' E 025°19'7 5.5
2016-Jul-01 03:13N 37°33' E 025°25'5 7.8
2016-Jul-01 02:33N 37°36' E 025°30'  
2016-Jun-28 22:33N 37°13' E 025°47'13 6.1
2016-Jun-28 20:22N 37°14' E 025°30'5 6.0
2016-Jun-28 19:34N 37°13' E 025°24'6 5.6
2016-Jun-28 18:34N 37°12' E 025°17'70 1.6
2016-Jun-26 22:23N 37°16' E 023°49'5 5.8
2016-Jun-26 21:33N 37°19' E 023°45'6 6.1
2016-Jun-26 20:33N 37°22' E 023°38'6 6.0
2016-Jun-26 19:33N 37°23' E 023°31'3 3.2
2016-Jun-26 18:33N 37°21' E 023°28'0 0.0
2016-Jun-26 17:32N 37°21' E 023°28'0 0.0
2016-Jun-26 16:31N 37°21' E 023°27'0 0.0
2016-Jun-26 15:28N 37°21' E 023°27'0 0.0
2016-Jun-26 14:32N 37°21' E 023°28'0 0.0
2016-Jun-26 13:30N 37°21' E 023°27'0 0.0
2016-Jun-26 12:31N 37°21' E 023°28'0 0.0
2016-Jun-26 11:26N 37°21' E 023°28'0 0.1
2016-Jun-26 10:28N 37°21' E 023°27'0 0.0
2016-Jun-26 09:32N 37°21' E 023°27'0 0.0
2016-Jun-26 08:31N 37°21' E 023°27'0 0.0
2016-Jun-26 07:29N 37°21' E 023°27'0 0.0
2016-Jun-26 06:33N 37°21' E 023°27'0 0.0
2016-Jun-26 05:33N 37°21' E 023°27'0 0.0
2016-Jun-26 04:32N 37°21' E 023°27'0 0.0
2016-Jun-26 03:29N 37°21' E 023°27'0 0.0
2016-Jun-26 01:32N 37°21' E 023°28'0 0.0
2016-Jun-26 00:29N 37°21' E 023°28'0 0.0
2016-Jun-25 23:33N 37°21' E 023°28'0 0.0
2016-Jun-25 22:32N 37°21' E 023°28'0 0.0
2016-Jun-25 21:31N 37°21' E 023°28'0 0.0
2016-Jun-25 20:31N 37°21' E 023°28'2 2.2
2016-Jun-25 19:33N 37°23' E 023°29'1212.2
2016-Jun-25 18:33N 37°32' E 023°38'1110.9
2016-Jun-25 17:34N 37°43' E 023°40'1211.7
2016-Jun-25 16:33N 37°55' E 023°37'2 2.0
2016-Jun-25 15:32N 37°56' E 023°38'0 0.0
2016-Jun-25 14:28N 37°56' E 023°38'0 0.0
2016-Jun-25 13:32N 37°56' E 023°38'0 0.0
2016-Jun-25 12:32N 37°56' E 023°38'0 0.0
2016-Jun-25 11:33N 37°56' E 023°38'0 0.0
2016-Jun-25 10:31N 37°56' E 023°38'0 0.0
2016-Jun-25 09:31N 37°56' E 023°38'0 0.0
2016-Jun-25 08:31N 37°56' E 023°38'0 0.0
2016-Jun-25 07:33N 37°56' E 023°38'0 0.0
2016-Jun-25 06:31N 37°56' E 023°38'0 0.0
2016-Jun-25 05:31N 37°56' E 023°38'0 0.0
2016-Jun-25 04:31N 37°56' E 023°38'1 1.5
2016-Jun-25 03:33N 37°56' E 023°37'3 3.2
2016-Jun-25 02:33N 37°52' E 023°38'7 7.5
2016-Jun-25 01:34N 37°46' E 023°42'7 7.4
2016-Jun-25 00:33N 37°40' E 023°47'8 8.1
2016-Jun-24 23:33N 37°35' E 023°55'9 7.6
2016-Jun-24 22:24N 37°29' E 024°04'43 7.2
2016-Jun-24 16:31N 37°10' E 024°52'7 7.4
2016-Jun-24 15:33N 37°08' E 025°00'6 0.5
2016-Jun-24 04:33N 37°05' E 025°06'4 3.8
2016-Jun-24 03:34N 37°06' E 025°02'1 0.8
2016-Jun-24 02:33N 37°06' E 025°02'1 1.2
2016-Jun-24 01:34N 37°05' E 025°02'1 1.0
2016-Jun-24 00:34N 37°06' E 025°02'  

Dump ship's entire track history